sensor_id;sensor_type;location;lat;lon;timestamp;temperature;humidity
4578;DHT22;2301;47.354;8.528;2023-06-22T00:01:17;25.60;73.20
4578;DHT22;2301;47.354;8.528;2023-06-22T00:03:43;25.60;73.40
4578;DHT22;2301;47.354;8.528;2023-06-22T00:06:12;25.50;73.30
4578;DHT22;2301;47.354;8.528;2023-06-22T00:08:39;25.50;73.40
4578;DHT22;2301;47.354;8.528;2023-06-22T00:11:06;25.50;73.60
4578;DHT22;2301;47.354;8.528;2023-06-22T00:13:33;25.50;73.70
4578;DHT22;2301;47.354;8.528;2023-06-22T00:16:00;25.40;73.60
4578;DHT22;2301;47.354;8.528;2023-06-22T00:18:26;25.40;73.70
4578;DHT22;2301;47.354;8.528;2023-06-22T00:20:56;25.40;73.70
4578;DHT22;2301;47.354;8.528;2023-06-22T00:23:25;25.40;73.50
4578;DHT22;2301;47.354;8.528;2023-06-22T00:25:52;25.40;73.60
4578;DHT22;2301;47.354;8.528;2023-06-22T00:28:19;25.30;73.90
4578;DHT22;2301;47.354;8.528;2023-06-22T00:30:47;25.30;74.00
4578;DHT22;2301;47.354;8.528;2023-06-22T00:33:14;25.30;73.90
4578;DHT22;2301;47.354;8.528;2023-06-22T00:35:41;25.20;73.80
4578;DHT22;2301;47.354;8.528;2023-06-22T00:38:08;25.20;73.90
4578;DHT22;2301;47.354;8.528;2023-06-22T00:40:37;25.20;73.90
4578;DHT22;2301;47.354;8.528;2023-06-22T00:43:04;25.20;74.10
4578;DHT22;2301;47.354;8.528;2023-06-22T00:45:31;25.10;74.10
4578;DHT22;2301;47.354;8.528;2023-06-22T00:47:59;25.10;74.20
4578;DHT22;2301;47.354;8.528;2023-06-22T00:50:27;25.10;74.30
4578;DHT22;2301;47.354;8.528;2023-06-22T00:53:00;25.00;74.50
4578;DHT22;2301;47.354;8.528;2023-06-22T00:55:29;25.00;74.70
4578;DHT22;2301;47.354;8.528;2023-06-22T00:57:57;25.00;74.70
4578;DHT22;2301;47.354;8.528;2023-06-22T01:00:24;25.00;74.80
4578;DHT22;2301;47.354;8.528;2023-06-22T01:02:52;25.00;74.90
4578;DHT22;2301;47.354;8.528;2023-06-22T01:05:20;25.00;74.80
4578;DHT22;2301;47.354;8.528;2023-06-22T01:08:00;25.00;74.70
4578;DHT22;2301;47.354;8.528;2023-06-22T01:10:35;25.00;74.70
4578;DHT22;2301;47.354;8.528;2023-06-22T01:13:10;25.00;74.70
4578;DHT22;2301;47.354;8.528;2023-06-22T01:15:44;25.00;74.80
4578;DHT22;2301;47.354;8.528;2023-06-22T01:18:16;25.00;74.80
4578;DHT22;2301;47.354;8.528;2023-06-22T01:20:44;25.00;74.80
4578;DHT22;2301;47.354;8.528;2023-06-22T01:23:18;25.00;74.90
4578;DHT22;2301;47.354;8.528;2023-06-22T01:25:59;25.00;75.00
4578;DHT22;2301;47.354;8.528;2023-06-22T01:28:46;24.90;74.90
4578;DHT22;2301;47.354;8.528;2023-06-22T01:31:16;24.90;75.00
4578;DHT22;2301;47.354;8.528;2023-06-22T01:33:45;24.90;75.10
4578;DHT22;2301;47.354;8.528;2023-06-22T01:36:13;24.90;75.10
4578;DHT22;2301;47.354;8.528;2023-06-22T01:38:42;24.90;75.20
4578;DHT22;2301;47.354;8.528;2023-06-22T01:41:10;24.90;75.40
4578;DHT22;2301;47.354;8.528;2023-06-22T01:43:38;24.80;75.30
4578;DHT22;2301;47.354;8.528;2023-06-22T01:46:06;24.90;75.30
4578;DHT22;2301;47.354;8.528;2023-06-22T01:48:33;24.80;75.20
4578;DHT22;2301;47.354;8.528;2023-06-22T01:51:01;24.80;75.30
4578;DHT22;2301;47.354;8.528;2023-06-22T01:53:28;24.80;75.50
4578;DHT22;2301;47.354;8.528;2023-06-22T01:55:55;24.80;75.50
4578;DHT22;2301;47.354;8.528;2023-06-22T01:58:25;24.80;75.60
4578;DHT22;2301;47.354;8.528;2023-06-22T02:00:57;24.80;76.50
4578;DHT22;2301;47.354;8.528;2023-06-22T02:03:31;24.70;75.70
4578;DHT22;2301;47.354;8.528;2023-06-22T02:06:04;24.70;75.90
4578;DHT22;2301;47.354;8.528;2023-06-22T02:08:36;24.70;75.90
4578;DHT22;2301;47.354;8.528;2023-06-22T02:11:06;24.60;76.30
4578;DHT22;2301;47.354;8.528;2023-06-22T02:13:34;24.60;76.40
4578;DHT22;2301;47.354;8.528;2023-06-22T02:16:02;24.50;76.50
4578;DHT22;2301;47.354;8.528;2023-06-22T02:18:30;24.50;76.70
4578;DHT22;2301;47.354;8.528;2023-06-22T02:20:57;24.50;76.80
4578;DHT22;2301;47.354;8.528;2023-06-22T02:23:24;24.50;77.00
4578;DHT22;2301;47.354;8.528;2023-06-22T02:25:51;24.40;76.90
4578;DHT22;2301;47.354;8.528;2023-06-22T02:28:18;24.40;77.20
4578;DHT22;2301;47.354;8.528;2023-06-22T02:30:45;24.40;77.30
4578;DHT22;2301;47.354;8.528;2023-06-22T02:33:12;24.30;77.50
4578;DHT22;2301;47.354;8.528;2023-06-22T02:35:41;24.30;77.70
4578;DHT22;2301;47.354;8.528;2023-06-22T02:38:13;24.20;77.70
4578;DHT22;2301;47.354;8.528;2023-06-22T02:40:40;24.20;78.00
4578;DHT22;2301;47.354;8.528;2023-06-22T02:43:07;24.20;78.10
4578;DHT22;2301;47.354;8.528;2023-06-22T02:45:34;24.20;78.10
4578;DHT22;2301;47.354;8.528;2023-06-22T02:48:01;24.20;78.30
4578;DHT22;2301;47.354;8.528;2023-06-22T02:50:28;24.10;78.30
4578;DHT22;2301;47.354;8.528;2023-06-22T02:52:56;24.10;78.50
4578;DHT22;2301;47.354;8.528;2023-06-22T02:55:23;24.10;78.70
4578;DHT22;2301;47.354;8.528;2023-06-22T02:57:51;24.00;78.90
4578;DHT22;2301;47.354;8.528;2023-06-22T03:00:18;24.00;79.10
4578;DHT22;2301;47.354;8.528;2023-06-22T03:02:47;24.00;79.40
4578;DHT22;2301;47.354;8.528;2023-06-22T03:05:15;23.90;79.50
4578;DHT22;2301;47.354;8.528;2023-06-22T03:07:44;23.90;79.50
4578;DHT22;2301;47.354;8.528;2023-06-22T03:10:14;23.90;79.50
4578;DHT22;2301;47.354;8.528;2023-06-22T03:12:42;23.90;79.80
4578;DHT22;2301;47.354;8.528;2023-06-22T03:15:10;23.90;79.80
4578;DHT22;2301;47.354;8.528;2023-06-22T03:17:39;23.90;80.10
4578;DHT22;2301;47.354;8.528;2023-06-22T03:20:07;23.80;80.20
4578;DHT22;2301;47.354;8.528;2023-06-22T03:22:36;23.80;80.20
4578;DHT22;2301;47.354;8.528;2023-06-22T03:25:04;23.80;80.40
4578;DHT22;2301;47.354;8.528;2023-06-22T03:27:37;23.80;80.60
4578;DHT22;2301;47.354;8.528;2023-06-22T03:30:05;23.70;80.60
4578;DHT22;2301;47.354;8.528;2023-06-22T03:32:32;23.70;80.70
4578;DHT22;2301;47.354;8.528;2023-06-22T03:34:59;23.70;80.90
4578;DHT22;2301;47.354;8.528;2023-06-22T03:37:26;23.70;81.00
4578;DHT22;2301;47.354;8.528;2023-06-22T03:39:53;23.70;81.20
4578;DHT22;2301;47.354;8.528;2023-06-22T03:42:20;23.70;82.10
4578;DHT22;2301;47.354;8.528;2023-06-22T03:44:48;23.70;81.50
4578;DHT22;2301;47.354;8.528;2023-06-22T03:47:15;23.60;81.50
4578;DHT22;2301;47.354;8.528;2023-06-22T03:49:42;23.60;81.70
4578;DHT22;2301;47.354;8.528;2023-06-22T03:52:09;23.60;81.80
4578;DHT22;2301;47.354;8.528;2023-06-22T03:54:36;23.60;82.70
4578;DHT22;2301;47.354;8.528;2023-06-22T03:57:04;23.50;82.00
4578;DHT22;2301;47.354;8.528;2023-06-22T03:59:31;23.50;82.10
4578;DHT22;2301;47.354;8.528;2023-06-22T04:02:02;23.50;82.30
4578;DHT22;2301;47.354;8.528;2023-06-22T04:04:31;23.50;82.30
4578;DHT22;2301;47.354;8.528;2023-06-22T04:06:59;23.50;82.60
4578;DHT22;2301;47.354;8.528;2023-06-22T04:09:26;23.50;82.70
4578;DHT22;2301;47.354;8.528;2023-06-22T04:11:53;23.50;82.80
4578;DHT22;2301;47.354;8.528;2023-06-22T04:14:20;23.50;83.00
4578;DHT22;2301;47.354;8.528;2023-06-22T04:16:47;23.50;82.90
4578;DHT22;2301;47.354;8.528;2023-06-22T04:19:15;23.50;82.90
4578;DHT22;2301;47.354;8.528;2023-06-22T04:21:43;23.50;83.00
4578;DHT22;2301;47.354;8.528;2023-06-22T04:24:11;23.50;83.30
4578;DHT22;2301;47.354;8.528;2023-06-22T04:26:38;23.50;83.40
4578;DHT22;2301;47.354;8.528;2023-06-22T04:29:07;23.50;83.60
4578;DHT22;2301;47.354;8.528;2023-06-22T04:31:34;23.50;83.90
4578;DHT22;2301;47.354;8.528;2023-06-22T04:34:02;23.50;83.90
4578;DHT22;2301;47.354;8.528;2023-06-22T04:36:35;23.50;84.00
4578;DHT22;2301;47.354;8.528;2023-06-22T04:39:05;23.50;83.90
4578;DHT22;2301;47.354;8.528;2023-06-22T04:41:32;23.50;83.80
4578;DHT22;2301;47.354;8.528;2023-06-22T04:44:08;23.50;83.90
4578;DHT22;2301;47.354;8.528;2023-06-22T04:46:35;23.50;84.00
4578;DHT22;2301;47.354;8.528;2023-06-22T04:49:05;23.60;84.20
4578;DHT22;2301;47.354;8.528;2023-06-22T04:51:37;23.60;84.30
4578;DHT22;2301;47.354;8.528;2023-06-22T04:54:04;23.60;84.20
4578;DHT22;2301;47.354;8.528;2023-06-22T04:56:31;23.60;84.00
4578;DHT22;2301;47.354;8.528;2023-06-22T04:58:58;23.70;84.10
4578;DHT22;2301;47.354;8.528;2023-06-22T05:01:25;23.70;83.10
4578;DHT22;2301;47.354;8.528;2023-06-22T05:03:52;23.70;83.40
4578;DHT22;2301;47.354;8.528;2023-06-22T05:06:21;23.80;84.50
4578;DHT22;2301;47.354;8.528;2023-06-22T05:08:53;23.80;83.80
4578;DHT22;2301;47.354;8.528;2023-06-22T05:11:23;23.80;83.50
4578;DHT22;2301;47.354;8.528;2023-06-22T05:13:50;23.90;83.40
4578;DHT22;2301;47.354;8.528;2023-06-22T05:16:17;23.90;83.40
4578;DHT22;2301;47.354;8.528;2023-06-22T05:18:51;24.00;83.40
4578;DHT22;2301;47.354;8.528;2023-06-22T05:21:21;24.00;83.20
4578;DHT22;2301;47.354;8.528;2023-06-22T05:23:50;24.10;82.90
4578;DHT22;2301;47.354;8.528;2023-06-22T05:26:17;24.10;83.10
4578;DHT22;2301;47.354;8.528;2023-06-22T05:28:45;24.10;82.80
4578;DHT22;2301;47.354;8.528;2023-06-22T05:31:13;24.20;82.80
4578;DHT22;2301;47.354;8.528;2023-06-22T05:33:40;24.20;82.80
4578;DHT22;2301;47.354;8.528;2023-06-22T05:36:07;24.30;82.70
4578;DHT22;2301;47.354;8.528;2023-06-22T05:38:34;24.30;82.60
4578;DHT22;2301;47.354;8.528;2023-06-22T05:41:02;24.30;82.40
4578;DHT22;2301;47.354;8.528;2023-06-22T05:43:29;24.40;82.40
4578;DHT22;2301;47.354;8.528;2023-06-22T05:45:57;24.40;81.80
4578;DHT22;2301;47.354;8.528;2023-06-22T05:48:24;24.40;81.70
4578;DHT22;2301;47.354;8.528;2023-06-22T05:50:51;24.50;81.80
4578;DHT22;2301;47.354;8.528;2023-06-22T05:53:17;24.50;81.60
4578;DHT22;2301;47.354;8.528;2023-06-22T05:55:45;24.60;81.50
4578;DHT22;2301;47.354;8.528;2023-06-22T05:58:14;24.60;81.00
4578;DHT22;2301;47.354;8.528;2023-06-22T06:00:41;24.60;81.00
4578;DHT22;2301;47.354;8.528;2023-06-22T06:03:09;24.70;81.00
4578;DHT22;2301;47.354;8.528;2023-06-22T06:05:36;24.70;80.50
4578;DHT22;2301;47.354;8.528;2023-06-22T06:08:05;24.80;80.70
4578;DHT22;2301;47.354;8.528;2023-06-22T06:10:32;24.80;80.50
4578;DHT22;2301;47.354;8.528;2023-06-22T06:13:00;24.80;80.30
4578;DHT22;2301;47.354;8.528;2023-06-22T06:15:31;24.80;80.20
4578;DHT22;2301;47.354;8.528;2023-06-22T06:17:58;24.90;79.80
4578;DHT22;2301;47.354;8.528;2023-06-22T06:20:26;24.90;79.70
4578;DHT22;2301;47.354;8.528;2023-06-22T06:22:54;25.00;79.70
4578;DHT22;2301;47.354;8.528;2023-06-22T06:25:21;25.00;79.50
4578;DHT22;2301;47.354;8.528;2023-06-22T06:27:49;25.10;79.50
4578;DHT22;2301;47.354;8.528;2023-06-22T06:30:18;25.10;79.70
4578;DHT22;2301;47.354;8.528;2023-06-22T06:32:46;25.10;79.40
4578;DHT22;2301;47.354;8.528;2023-06-22T06:35:15;25.20;79.40
4578;DHT22;2301;47.354;8.528;2023-06-22T06:37:43;25.20;79.00
4578;DHT22;2301;47.354;8.528;2023-06-22T06:40:13;25.30;79.00
4578;DHT22;2301;47.354;8.528;2023-06-22T06:42:41;25.40;79.10
4578;DHT22;2301;47.354;8.528;2023-06-22T06:45:10;25.40;78.80
4578;DHT22;2301;47.354;8.528;2023-06-22T06:47:37;25.50;78.60
4578;DHT22;2301;47.354;8.528;2023-06-22T06:50:08;25.60;78.20
4578;DHT22;2301;47.354;8.528;2023-06-22T06:52:35;25.80;78.10
4578;DHT22;2301;47.354;8.528;2023-06-22T06:55:03;25.90;77.60
4578;DHT22;2301;47.354;8.528;2023-06-22T06:57:33;26.00;77.10
4578;DHT22;2301;47.354;8.528;2023-06-22T07:00:00;26.10;76.50
4578;DHT22;2301;47.354;8.528;2023-06-22T07:02:32;26.30;76.30
4578;DHT22;2301;47.354;8.528;2023-06-22T07:04:58;26.40;75.90
4578;DHT22;2301;47.354;8.528;2023-06-22T07:07:27;26.50;76.10
4578;DHT22;2301;47.354;8.528;2023-06-22T07:09:54;26.70;75.00
4578;DHT22;2301;47.354;8.528;2023-06-22T07:12:21;26.70;74.60
4578;DHT22;2301;47.354;8.528;2023-06-22T07:14:48;26.70;74.60
4578;DHT22;2301;47.354;8.528;2023-06-22T07:17:15;26.80;74.10
4578;DHT22;2301;47.354;8.528;2023-06-22T07:19:42;26.70;73.90
4578;DHT22;2301;47.354;8.528;2023-06-22T07:22:11;26.70;74.10
4578;DHT22;2301;47.354;8.528;2023-06-22T07:24:43;26.70;73.60
4578;DHT22;2301;47.354;8.528;2023-06-22T07:27:11;26.70;73.50
4578;DHT22;2301;47.354;8.528;2023-06-22T07:29:38;26.70;73.60
4578;DHT22;2301;47.354;8.528;2023-06-22T07:32:06;26.60;73.80
4578;DHT22;2301;47.354;8.528;2023-06-22T07:34:34;26.60;73.80
4578;DHT22;2301;47.354;8.528;2023-06-22T07:37:01;26.60;73.90
4578;DHT22;2301;47.354;8.528;2023-06-22T07:39:28;26.60;73.80
4578;DHT22;2301;47.354;8.528;2023-06-22T07:41:56;26.50;74.20
4578;DHT22;2301;47.354;8.528;2023-06-22T07:44:23;26.50;74.30
4578;DHT22;2301;47.354;8.528;2023-06-22T07:46:50;26.60;74.70
4578;DHT22;2301;47.354;8.528;2023-06-22T07:49:17;26.60;75.00
4578;DHT22;2301;47.354;8.528;2023-06-22T07:51:44;26.60;74.60
4578;DHT22;2301;47.354;8.528;2023-06-22T07:54:11;26.70;74.80
4578;DHT22;2301;47.354;8.528;2023-06-22T07:56:38;26.70;76.10
4578;DHT22;2301;47.354;8.528;2023-06-22T07:59:06;26.90;76.90
4578;DHT22;2301;47.354;8.528;2023-06-22T08:01:33;27.00;77.40
4578;DHT22;2301;47.354;8.528;2023-06-22T08:04:00;27.00;76.30
4578;DHT22;2301;47.354;8.528;2023-06-22T08:06:26;27.10;75.30
4578;DHT22;2301;47.354;8.528;2023-06-22T08:08:56;27.30;75.40
4578;DHT22;2301;47.354;8.528;2023-06-22T08:11:24;27.50;74.90
4578;DHT22;2301;47.354;8.528;2023-06-22T08:13:51;27.60;74.20
4578;DHT22;2301;47.354;8.528;2023-06-22T08:16:19;27.60;73.90
4578;DHT22;2301;47.354;8.528;2023-06-22T08:18:46;27.70;72.60
4578;DHT22;2301;47.354;8.528;2023-06-22T08:21:13;27.80;72.00
4578;DHT22;2301;47.354;8.528;2023-06-22T08:23:40;28.00;71.80
4578;DHT22;2301;47.354;8.528;2023-06-22T08:26:07;28.10;71.00
4578;DHT22;2301;47.354;8.528;2023-06-22T08:28:34;28.20;70.50
4578;DHT22;2301;47.354;8.528;2023-06-22T08:31:02;28.40;70.20
4578;DHT22;2301;47.354;8.528;2023-06-22T08:33:30;28.40;69.80
4578;DHT22;2301;47.354;8.528;2023-06-22T08:35:58;28.40;69.60
4578;DHT22;2301;47.354;8.528;2023-06-22T08:38:25;28.40;69.40
4578;DHT22;2301;47.354;8.528;2023-06-22T08:40:53;28.40;69.40
4578;DHT22;2301;47.354;8.528;2023-06-22T08:43:22;28.50;69.50
4578;DHT22;2301;47.354;8.528;2023-06-22T08:45:51;28.40;68.80
4578;DHT22;2301;47.354;8.528;2023-06-22T08:48:21;28.60;69.10
4578;DHT22;2301;47.354;8.528;2023-06-22T08:50:52;28.70;68.80
4578;DHT22;2301;47.354;8.528;2023-06-22T08:53:23;28.80;68.30
4578;DHT22;2301;47.354;8.528;2023-06-22T08:55:52;28.90;68.20
4578;DHT22;2301;47.354;8.528;2023-06-22T08:58:23;28.90;67.90
4578;DHT22;2301;47.354;8.528;2023-06-22T09:00:50;28.80;67.60
4578;DHT22;2301;47.354;8.528;2023-06-22T09:03:17;28.70;67.80
4578;DHT22;2301;47.354;8.528;2023-06-22T09:05:46;28.70;68.20
4578;DHT22;2301;47.354;8.528;2023-06-22T09:08:14;28.60;68.30
4578;DHT22;2301;47.354;8.528;2023-06-22T09:10:41;28.50;68.70
4578;DHT22;2301;47.354;8.528;2023-06-22T09:13:08;28.60;69.00
4578;DHT22;2301;47.354;8.528;2023-06-22T09:15:35;28.80;68.80
4578;DHT22;2301;47.354;8.528;2023-06-22T09:18:02;28.80;68.10
4578;DHT22;2301;47.354;8.528;2023-06-22T09:20:29;28.90;67.90
4578;DHT22;2301;47.354;8.528;2023-06-22T09:22:56;29.00;67.80
4578;DHT22;2301;47.354;8.528;2023-06-22T09:25:24;29.10;67.40
4578;DHT22;2301;47.354;8.528;2023-06-22T09:27:51;29.20;66.40
4578;DHT22;2301;47.354;8.528;2023-06-22T09:30:19;29.20;65.60
4578;DHT22;2301;47.354;8.528;2023-06-22T09:32:46;29.30;65.20
4578;DHT22;2301;47.354;8.528;2023-06-22T09:35:12;29.40;65.10
4578;DHT22;2301;47.354;8.528;2023-06-22T09:37:43;29.60;65.10
4578;DHT22;2301;47.354;8.528;2023-06-22T09:40:12;29.70;64.10
4578;DHT22;2301;47.354;8.528;2023-06-22T09:42:43;29.90;63.30
4578;DHT22;2301;47.354;8.528;2023-06-22T09:45:10;30.00;63.20
4578;DHT22;2301;47.354;8.528;2023-06-22T09:47:37;29.90;62.30
4578;DHT22;2301;47.354;8.528;2023-06-22T09:50:05;29.70;61.90
4578;DHT22;2301;47.354;8.528;2023-06-22T09:52:32;29.60;62.90
4578;DHT22;2301;47.354;8.528;2023-06-22T09:54:59;29.60;63.00
4578;DHT22;2301;47.354;8.528;2023-06-22T09:57:25;29.50;63.00
4578;DHT22;2301;47.354;8.528;2023-06-22T09:59:54;29.50;63.40
4578;DHT22;2301;47.354;8.528;2023-06-22T10:02:21;29.60;63.40
4578;DHT22;2301;47.354;8.528;2023-06-22T10:04:48;29.70;63.60
4578;DHT22;2301;47.354;8.528;2023-06-22T10:07:15;29.70;63.50
4578;DHT22;2301;47.354;8.528;2023-06-22T10:09:42;29.70;63.60
4578;DHT22;2301;47.354;8.528;2023-06-22T10:12:09;29.70;64.10
4578;DHT22;2301;47.354;8.528;2023-06-22T10:14:36;29.70;64.40
4578;DHT22;2301;47.354;8.528;2023-06-22T10:17:04;29.60;64.30
4578;DHT22;2301;47.354;8.528;2023-06-22T10:19:32;29.50;65.20
4578;DHT22;2301;47.354;8.528;2023-06-22T10:22:02;29.30;65.40
4578;DHT22;2301;47.354;8.528;2023-06-22T10:24:29;29.20;65.20
4578;DHT22;2301;47.354;8.528;2023-06-22T10:26:56;29.20;65.20
4578;DHT22;2301;47.354;8.528;2023-06-22T10:29:23;29.10;66.10
4578;DHT22;2301;47.354;8.528;2023-06-22T10:31:50;29.10;66.00
4578;DHT22;2301;47.354;8.528;2023-06-22T10:34:18;29.10;66.10
4578;DHT22;2301;47.354;8.528;2023-06-22T10:36:45;29.10;66.50
4578;DHT22;2301;47.354;8.528;2023-06-22T10:39:14;29.00;67.40
4578;DHT22;2301;47.354;8.528;2023-06-22T10:41:41;29.00;68.40
4578;DHT22;2301;47.354;8.528;2023-06-22T10:44:09;29.00;68.40
4578;DHT22;2301;47.354;8.528;2023-06-22T10:46:36;29.10;68.90
4578;DHT22;2301;47.354;8.528;2023-06-22T10:49:03;29.10;68.40
4578;DHT22;2301;47.354;8.528;2023-06-22T10:51:31;29.10;68.00
4578;DHT22;2301;47.354;8.528;2023-06-22T10:53:59;29.10;67.50
4578;DHT22;2301;47.354;8.528;2023-06-22T10:56:26;29.20;68.40
4578;DHT22;2301;47.354;8.528;2023-06-22T10:58:53;29.30;67.00
4578;DHT22;2301;47.354;8.528;2023-06-22T11:01:20;29.40;67.30
4578;DHT22;2301;47.354;8.528;2023-06-22T11:03:47;29.50;66.90
4578;DHT22;2301;47.354;8.528;2023-06-22T11:06:14;29.50;66.60
4578;DHT22;2301;47.354;8.528;2023-06-22T11:08:45;29.50;66.90
4578;DHT22;2301;47.354;8.528;2023-06-22T11:11:12;29.40;67.30
4578;DHT22;2301;47.354;8.528;2023-06-22T11:13:39;29.40;67.00
4578;DHT22;2301;47.354;8.528;2023-06-22T11:16:06;29.30;67.10
4578;DHT22;2301;47.354;8.528;2023-06-22T11:18:33;29.20;68.10
4578;DHT22;2301;47.354;8.528;2023-06-22T11:21:00;29.20;67.20
4578;DHT22;2301;47.354;8.528;2023-06-22T11:23:27;29.10;67.10
4578;DHT22;2301;47.354;8.528;2023-06-22T11:25:55;29.10;67.30
4578;DHT22;2301;47.354;8.528;2023-06-22T11:28:22;29.10;67.10
4578;DHT22;2301;47.354;8.528;2023-06-22T11:30:49;29.10;66.60
4578;DHT22;2301;47.354;8.528;2023-06-22T11:33:16;29.00;66.30
4578;DHT22;2301;47.354;8.528;2023-06-22T11:35:43;29.00;66.80
4578;DHT22;2301;47.354;8.528;2023-06-22T11:38:12;29.00;67.40
4578;DHT22;2301;47.354;8.528;2023-06-22T11:40:45;29.00;68.20
4578;DHT22;2301;47.354;8.528;2023-06-22T11:43:14;29.00;67.60
4578;DHT22;2301;47.354;8.528;2023-06-22T11:45:41;29.10;67.40
4578;DHT22;2301;47.354;8.528;2023-06-22T11:48:08;29.20;67.40
4578;DHT22;2301;47.354;8.528;2023-06-22T11:50:35;29.20;66.60
4578;DHT22;2301;47.354;8.528;2023-06-22T11:53:02;29.20;65.60
4578;DHT22;2301;47.354;8.528;2023-06-22T11:55:29;29.20;65.40
4578;DHT22;2301;47.354;8.528;2023-06-22T11:57:57;29.20;66.00
4578;DHT22;2301;47.354;8.528;2023-06-22T12:00:30;29.20;66.90
4578;DHT22;2301;47.354;8.528;2023-06-22T12:02:57;29.20;67.50
4578;DHT22;2301;47.354;8.528;2023-06-22T12:05:24;29.30;66.90
4578;DHT22;2301;47.354;8.528;2023-06-22T12:07:53;29.40;66.30
4578;DHT22;2301;47.354;8.528;2023-06-22T12:10:20;29.50;65.90
4578;DHT22;2301;47.354;8.528;2023-06-22T12:12:47;29.60;65.50
4578;DHT22;2301;47.354;8.528;2023-06-22T12:15:14;29.70;64.90
4578;DHT22;2301;47.354;8.528;2023-06-22T12:17:43;29.80;65.00
4578;DHT22;2301;47.354;8.528;2023-06-22T12:20:10;29.90;65.50
4578;DHT22;2301;47.354;8.528;2023-06-22T12:22:37;30.00;65.40
4578;DHT22;2301;47.354;8.528;2023-06-22T12:25:05;30.10;64.40
4578;DHT22;2301;47.354;8.528;2023-06-22T12:27:32;30.10;64.20
4578;DHT22;2301;47.354;8.528;2023-06-22T12:29:59;30.20;63.90
4578;DHT22;2301;47.354;8.528;2023-06-22T12:32:26;30.10;64.00
4578;DHT22;2301;47.354;8.528;2023-06-22T12:34:55;30.10;64.40
4578;DHT22;2301;47.354;8.528;2023-06-22T12:37:22;30.20;64.70
4578;DHT22;2301;47.354;8.528;2023-06-22T12:39:49;30.30;64.30
4578;DHT22;2301;47.354;8.528;2023-06-22T12:42:16;30.30;64.40
4578;DHT22;2301;47.354;8.528;2023-06-22T12:44:43;30.40;64.00
4578;DHT22;2301;47.354;8.528;2023-06-22T12:47:10;30.50;63.40
4578;DHT22;2301;47.354;8.528;2023-06-22T12:49:39;30.60;62.70
4578;DHT22;2301;47.354;8.528;2023-06-22T12:52:10;30.60;61.60
4578;DHT22;2301;47.354;8.528;2023-06-22T12:54:37;30.50;60.40
4578;DHT22;2301;47.354;8.528;2023-06-22T12:57:05;30.50;59.80
4578;DHT22;2301;47.354;8.528;2023-06-22T12:59:32;30.60;59.70
4578;DHT22;2301;47.354;8.528;2023-06-22T13:01:59;30.60;59.50
4578;DHT22;2301;47.354;8.528;2023-06-22T13:04:26;30.70;58.90
4578;DHT22;2301;47.354;8.528;2023-06-22T13:06:53;30.80;58.60
4578;DHT22;2301;47.354;8.528;2023-06-22T13:09:22;30.80;57.60
4578;DHT22;2301;47.354;8.528;2023-06-22T13:11:49;30.70;57.00
4578;DHT22;2301;47.354;8.528;2023-06-22T13:14:17;30.70;57.40
4578;DHT22;2301;47.354;8.528;2023-06-22T13:16:44;30.80;57.80
4578;DHT22;2301;47.354;8.528;2023-06-22T13:19:11;30.80;56.40
4578;DHT22;2301;47.354;8.528;2023-06-22T13:21:39;30.80;55.90
4578;DHT22;2301;47.354;8.528;2023-06-22T13:24:06;30.90;56.70
4578;DHT22;2301;47.354;8.528;2023-06-22T13:26:35;30.90;55.80
4578;DHT22;2301;47.354;8.528;2023-06-22T13:29:02;30.90;54.90
4578;DHT22;2301;47.354;8.528;2023-06-22T13:31:29;30.90;55.00
4578;DHT22;2301;47.354;8.528;2023-06-22T13:33:56;30.90;53.90
4578;DHT22;2301;47.354;8.528;2023-06-22T13:36:23;30.90;52.40
4578;DHT22;2301;47.354;8.528;2023-06-22T13:38:50;30.80;52.40
4578;DHT22;2301;47.354;8.528;2023-06-22T13:41:17;30.70;52.60
4578;DHT22;2301;47.354;8.528;2023-06-22T13:43:46;30.70;54.10
4578;DHT22;2301;47.354;8.528;2023-06-22T13:46:13;30.60;52.20
4578;DHT22;2301;47.354;8.528;2023-06-22T13:48:40;30.50;51.80
4578;DHT22;2301;47.354;8.528;2023-06-22T13:51:07;30.40;52.00
4578;DHT22;2301;47.354;8.528;2023-06-22T13:53:34;30.40;51.50
4578;DHT22;2301;47.354;8.528;2023-06-22T13:56:02;30.30;51.10
4578;DHT22;2301;47.354;8.528;2023-06-22T13:58:29;30.10;51.20
4578;DHT22;2301;47.354;8.528;2023-06-22T14:00:57;30.00;50.70
4578;DHT22;2301;47.354;8.528;2023-06-22T14:03:24;29.90;51.10
4578;DHT22;2301;47.354;8.528;2023-06-22T14:05:53;29.80;50.90
4578;DHT22;2301;47.354;8.528;2023-06-22T14:08:25;29.70;51.00
4578;DHT22;2301;47.354;8.528;2023-06-22T14:10:55;29.60;51.80
4578;DHT22;2301;47.354;8.528;2023-06-22T14:13:25;29.50;51.80
4578;DHT22;2301;47.354;8.528;2023-06-22T14:15:54;29.40;51.30
4578;DHT22;2301;47.354;8.528;2023-06-22T14:18:23;29.30;51.60
4578;DHT22;2301;47.354;8.528;2023-06-22T14:20:50;29.20;52.80
4578;DHT22;2301;47.354;8.528;2023-06-22T14:23:17;29.10;54.60
4578;DHT22;2301;47.354;8.528;2023-06-22T14:25:46;28.90;57.50
4578;DHT22;2301;47.354;8.528;2023-06-22T14:28:13;28.60;58.40
4578;DHT22;2301;47.354;8.528;2023-06-22T14:30:41;28.30;59.80
4578;DHT22;2301;47.354;8.528;2023-06-22T14:33:08;28.20;60.60
4578;DHT22;2301;47.354;8.528;2023-06-22T14:35:37;28.10;64.00
4578;DHT22;2301;47.354;8.528;2023-06-22T14:38:04;28.10;64.90
4578;DHT22;2301;47.354;8.528;2023-06-22T14:40:31;28.00;63.80
4578;DHT22;2301;47.354;8.528;2023-06-22T14:42:58;28.00;65.10
4578;DHT22;2301;47.354;8.528;2023-06-22T14:45:25;27.90;66.50
4578;DHT22;2301;47.354;8.528;2023-06-22T14:47:52;27.90;67.10
4578;DHT22;2301;47.354;8.528;2023-06-22T14:50:19;27.80;67.30
4578;DHT22;2301;47.354;8.528;2023-06-22T14:52:48;27.80;67.90
4578;DHT22;2301;47.354;8.528;2023-06-22T14:55:15;27.70;68.20
4578;DHT22;2301;47.354;8.528;2023-06-22T14:57:42;27.70;69.00
4578;DHT22;2301;47.354;8.528;2023-06-22T15:00:10;27.70;68.80
4578;DHT22;2301;47.354;8.528;2023-06-22T15:02:38;27.80;71.50
4578;DHT22;2301;47.354;8.528;2023-06-22T15:05:08;27.80;71.20
4578;DHT22;2301;47.354;8.528;2023-06-22T15:07:39;27.90;71.90
4578;DHT22;2301;47.354;8.528;2023-06-22T15:10:10;28.00;70.90
4578;DHT22;2301;47.354;8.528;2023-06-22T15:12:41;28.10;69.40
4578;DHT22;2301;47.354;8.528;2023-06-22T15:15:11;28.10;68.70
4578;DHT22;2301;47.354;8.528;2023-06-22T15:17:41;28.10;68.80
4578;DHT22;2301;47.354;8.528;2023-06-22T15:20:09;28.10;68.60
4578;DHT22;2301;47.354;8.528;2023-06-22T15:22:36;28.10;67.60
4578;DHT22;2301;47.354;8.528;2023-06-22T15:25:03;28.10;68.50
4578;DHT22;2301;47.354;8.528;2023-06-22T15:27:32;28.10;67.80
4578;DHT22;2301;47.354;8.528;2023-06-22T15:29:59;28.10;67.20
4578;DHT22;2301;47.354;8.528;2023-06-22T15:32:26;28.10;66.80
4578;DHT22;2301;47.354;8.528;2023-06-22T15:34:54;28.00;67.30
4578;DHT22;2301;47.354;8.528;2023-06-22T15:37:21;27.90;68.20
4578;DHT22;2301;47.354;8.528;2023-06-22T15:39:48;27.80;68.10
4578;DHT22;2301;47.354;8.528;2023-06-22T15:42:16;27.70;67.80
4578;DHT22;2301;47.354;8.528;2023-06-22T15:44:44;27.70;67.70
4578;DHT22;2301;47.354;8.528;2023-06-22T15:47:11;27.70;69.30
4578;DHT22;2301;47.354;8.528;2023-06-22T15:49:38;27.60;68.70
4578;DHT22;2301;47.354;8.528;2023-06-22T15:52:06;27.60;68.90
4578;DHT22;2301;47.354;8.528;2023-06-22T15:54:33;27.50;68.50
4578;DHT22;2301;47.354;8.528;2023-06-22T15:57:00;27.40;66.90
4578;DHT22;2301;47.354;8.528;2023-06-22T15:59:28;27.40;65.70
4578;DHT22;2301;47.354;8.528;2023-06-22T16:02:00;27.30;66.10
4578;DHT22;2301;47.354;8.528;2023-06-22T16:04:29;27.30;66.10
4578;DHT22;2301;47.354;8.528;2023-06-22T16:06:56;27.20;65.70